• Join FlightAware (Why Join?)
  • Login
  • US Flag 
05:31AM EST


 

Airport Tracker/Info


-or-


 

Live Flight TrackerFlight Track Log ✈ RPA3159 ✈ 09-May-2013 ✈ KBTV - KPHL

Flight Track Log - Related Links

Times and Time Zones

All times are in EDT time to prevent confusion due to time zone crossing. See the RPA3159 flight status page for this flight to view local times or setup timezone preferences in your user account.

Time Position Orientation Groundspeed Altitude Reporting Facility
EDT Latitude Longitude Course Direction KTS MPH feet Rate Location/Type
11:34AM 44.3697 -73.1311 195° South 249 287 4,500  Level Boston Center
11:35AM 44.3069 -73.1625 200° South 270 311 8,100 3,120 Climbing Boston Center
11:36AM 44.1180 -73.2808 195° South  Level FlightAware Approximate
11:36AM 44.2339 -73.1933 197° South 270 311 10,800  Level Boston Center
11:37AM 44.0302 -73.3122 194° South  Level FlightAware Approximate
11:37AM 44.1567 -73.2272 197° South 299 344 13,500  Level Boston Center
11:38AM 43.9420 -73.3416 193° South  Level FlightAware Approximate
11:38AM 44.0750 -73.2636 198° South 305 351 16,100  Level Boston Center
11:39AM 43.8543 -73.3735 195° South  Level FlightAware Approximate
11:39AM 43.9994 -73.3319 213° Southwest 319 367 18,800  Level Boston Center
11:40AM 43.7580 -73.4096 195° South  Level FlightAware Approximate
11:40AM 43.9219 -73.4000 212° Southwest 329 379 21,400  Level Boston Center
11:41AM 43.8419 -73.4733 213° Southwest 341 392 22,000 300 Climbing Boston Center
11:42AM 43.7600 -73.5497 214° Southwest 355 409 22,000  Level Boston Center
11:43AM 43.6781 -73.6256 214° Southwest 360 414 22,000  Level Boston Center
11:44AM 43.5981 -73.7014 214° Southwest 355 409 22,000  Level Boston Center
11:45AM 43.5139 -73.7742 212° Southwest 355 409 22,000  Level Boston Center
11:46AM 43.4317 -73.8497 214° Southwest 360 414 22,000  Level Boston Center
11:47AM 43.3472 -73.9247 213° Southwest 360 414 22,000  Level Boston Center
11:48AM 43.2631 -73.9997 213° Southwest 360 414 22,000  Level Boston Center
11:49AM 43.1806 -74.0744 213° Southwest 360 414 22,000  Level Boston Center
11:50AM 43.0961 -74.1519 214° Southwest 365 420 22,000  Level Boston Center
11:51AM 43.0136 -74.2289 214° Southwest 365 420 22,000  Level Boston Center
11:52AM 42.9269 -74.3031 212° Southwest 365 420 22,000  Level Boston Center
11:53AM 42.8425 -74.3769 213° Southwest 371 427 22,000  Level Boston Center
11:54AM 42.7556 -74.4564 214° Southwest 371 427 22,000  Level Boston Center
11:55AM 42.6708 -74.5297 212° Southwest 376 433 22,000  Level Boston Center
11:56AM 42.5861 -74.6031 213° Southwest 376 433 22,000  Level Boston Center
11:57AM 42.5033 -74.6761 213° Southwest 376 433 22,000 -600 Level Boston Center
11:58AM 42.4122 -74.7572 213° Southwest 376 433 20,900 -1,080 Descending Boston Center
12:00PM 42.2600 -74.8842 212° Southwest 346 398 19,000 -720 Descending New York Center
12:01PM 42.1786 -74.9544 213° Southwest 346 398 19,000  Level New York Center
12:02PM 42.1033 -75.0225 214° Southwest 357 411 19,000  Level New York Center
12:03PM 42.0197 -75.0922 212° Southwest 362 417 19,000  Level New York Center
12:04PM 41.9253 -75.1669 210° Southwest 362 417 19,000 -660 Level New York Center
12:05PM 41.8414 -75.2367 212° Southwest 356 410 17,800 -1,680 Descending New York Center
12:06PM 41.7664 -75.2956 210° Southwest 356 410 15,700 -1,920 Descending New York Center
12:07PM 41.6889 -75.3597 212° Southwest 351 404 14,000 -1,620 Descending New York Center
12:08PM 41.6031 -75.4286 211° Southwest 345 397 12,500 -1,020 Descending New York Center
12:09PM 41.5278 -75.4900 211° Southwest 335 386 12,000 -300 Descending New York Center
12:10PM 41.4503 -75.5481 209° Southwest 330 380 12,000  Level New York Center
12:11PM 41.3814 -75.6042 211° Southwest 330 380 12,000  Level New York Center
12:12PM 41.3039 -75.6647 210° Southwest 330 380 12,000  Level New York Center
12:13PM 41.2175 -75.6917 193° South 312 359 12,000  Level New York Center
12:14PM 41.1197 -75.6900 179° South 322 371 12,000  Level New York Center
12:15PM 41.0314 -75.7056 188° South 328 377 12,000  Level New York Center
12:16PM 40.9431 -75.7239 189° South 333 383 12,000 -120 Level New York Center
12:17PM 40.8536 -75.7203 178° South 322 371 11,800 -600 Descending New York Center
12:18PM 40.7808 -75.6683 152° Southeast 305 351 10,800 -960 Descending New York Center
12:19PM 40.7142 -75.6197 151° Southeast 300 345 10,000 -420 Descending New York Center
12:20PM 40.6433 -75.5683 151° Southeast 300 345 10,000  Level New York Center
12:21PM 40.5622 -75.5106 152° Southeast 300 345 10,000  Level New York Center
12:22PM 40.4872 -75.4592 152° Southeast 300 345 10,000 -120 Level New York Center
12:23PM 40.4242 -75.4167 153° Southeast 300 345 9,800 -1,080 Descending New York Center
12:24PM 40.3408 -75.3675 156° South 295 339 7,900 -1,800 Descending New York Center
12:25PM 40.2694 -75.3247 155° Southeast 290 334 6,300 -1,020 Descending New York Center
12:26PM 40.2008 -75.2658 147° Southeast 288 331 6,000 -180 Descending New York Center
12:27PM 40.1447 -75.2106 143° Southeast 288 331 6,000  Level New York Center
12:28PM 40.0850 -75.1333 135° Southeast 282 325 6,000  Level New York Center
12:29PM 40.0667 -75.0833 116° Southeast 200 230 6,000 -720 Level Philadelphia TRACON
12:30PM 40.0000 -75.0333 150° Southeast 202 232 4,700 -1,380 Descending Philadelphia TRACON
12:31PM 39.9500 -75.0167 166° South 191 220 3,200 -1,380 Descending Philadelphia TRACON
12:32PM 39.9167 -75.0500 217° Southwest 178 205 2,000 -1,140 Descending Philadelphia TRACON